Time;durP1;ratioP1;P1;durP2;ratioP2;P2;SDS_P1;SDS_P2;PMS_P1;PMS_P2;Temp;Humidity;BMP_temperature;BMP_pressure;BME280_temperature;BME280_humidity;BME280_pressure;Samples;Min_cycle;Max_cycle;Signal;HPM_P1;HPM_P2
2022/04/30 00:02:19;;;;;;;23.30;22.20;;;14.40;37.60;;;;;;5010697;28;20949;-85
2022/04/30 00:04:47;;;;;;;25.57;24.27;;;14.40;37.70;;;;;;5010543;28;20188;-85
2022/04/30 00:07:18;;;;;;;24.93;23.63;;;14.30;37.80;;;;;;5010553;28;20278;-85
2022/04/30 00:09:45;;;;;;;26.13;24.17;;;14.30;37.90;;;;;;5010506;28;20499;-85
2022/04/30 00:12:11;;;;;;;24.40;23.00;;;14.30;37.70;;;;;;5011208;28;20456;-85
2022/04/30 00:14:38;;;;;;;24.03;22.53;;;14.40;38.00;;;;;;5010622;28;20417;-84
2022/04/30 00:17:04;;;;;;;25.43;23.63;;;14.40;38.30;;;;;;5010709;28;20478;-84
2022/04/30 00:19:30;;;;;;;24.13;22.83;;;14.30;38.20;;;;;;5010364;28;20912;-84
2022/04/30 00:21:57;;;;;;;22.57;21.23;;;14.30;38.60;;;;;;5009808;28;20425;-84
2022/04/30 00:24:24;;;;;;;23.70;22.20;;;14.30;37.80;;;;;;5010366;28;20863;-82
2022/04/30 00:26:50;;;;;;;23.10;21.70;;;14.30;37.40;;;;;;5010837;28;20551;-83
2022/04/30 00:29:16;;;;;;;23.60;22.20;;;14.30;36.50;;;;;;5011060;28;20506;-84
2022/04/30 00:31:42;;;;;;;24.07;22.53;;;14.20;36.00;;;;;;5010402;28;20204;-84
2022/04/30 00:34:07;;;;;;;25.80;24.40;;;14.00;37.10;;;;;;5011181;28;20916;-85
2022/04/30 00:36:33;;;;;;;24.20;22.87;;;14.00;36.70;;;;;;5010877;28;20173;-83
2022/04/30 00:38:59;;;;;;;24.40;23.00;;;14.00;36.30;;;;;;5010975;28;20184;-83
2022/04/30 00:41:24;;;;;;;23.27;21.97;;;14.00;36.30;;;;;;5010655;28;20241;-84
2022/04/30 00:43:53;;;;;;;26.50;24.73;;;13.90;36.80;;;;;;5009720;28;20259;-83
2022/04/30 00:46:21;;;;;;;23.80;22.30;;;13.80;36.30;;;;;;5010356;28;20654;-84
2022/04/30 00:48:47;;;;;;;25.00;23.80;;;13.80;36.90;;;;;;5012527;28;20911;-84
2022/04/30 00:51:15;;;;;;;24.53;23.30;;;13.80;36.70;;;;;;5014872;28;20170;-84
2022/04/30 00:53:44;;;;;;;24.87;23.50;;;13.70;36.90;;;;;;5014490;28;20417;-84
2022/04/30 00:56:13;;;;;;;23.77;22.47;;;13.80;36.50;;;;;;5014039;28;20416;-83
2022/04/30 00:58:47;;;;;;;25.87;24.47;;;13.70;37.60;;;;;;5014974;28;20452;-84
2022/04/30 01:01:14;;;;;;;26.30;24.73;;;13.60;37.60;;;;;;5014807;28;20431;-83
2022/04/30 01:03:40;;;;;;;24.00;22.70;;;13.70;38.30;;;;;;5013437;28;20945;-84
2022/04/30 01:06:07;;;;;;;23.20;21.80;;;13.70;38.30;;;;;;5014217;28;20420;-83
2022/04/30 01:08:33;;;;;;;24.40;23.00;;;13.70;38.80;;;;;;5014652;28;20205;-83
2022/04/30 01:11:01;;;;;;;25.73;24.10;;;13.70;39.20;;;;;;5014094;28;20463;-83
2022/04/30 01:13:28;;;;;;;25.57;23.80;;;13.70;39.90;;;;;;5013746;28;20912;-83
2022/04/30 01:15:58;;;;;;;26.40;24.70;;;13.60;41.00;;;;;;5013737;28;20854;-83
2022/04/30 01:18:26;;;;;;;25.53;23.87;;;13.50;41.70;;;;;;5013851;28;20424;-84
2022/04/30 01:20:55;;;;;;;27.27;25.27;;;13.60;42.30;;;;;;5013826;28;20473;-83
2022/04/30 01:23:22;;;;;;;28.43;26.30;;;13.50;43.00;;;;;;5013771;28;20431;-83
2022/04/30 01:25:49;;;;;;;27.47;25.77;;;13.50;44.50;;;;;;5013475;28;20416;-84
2022/04/30 01:28:18;;;;;;;29.67;27.47;;;13.40;44.60;;;;;;5013179;28;20668;-84
2022/04/30 01:30:44;;;;;;;30.03;27.60;;;13.40;45.20;;;;;;5013551;28;20571;-82
2022/04/30 01:38:40;;;;;;;28.80;26.20;;;13.40;46.60;;;;;;5015189;28;20403;-84
2022/04/30 01:41:08;;;;;;;29.97;27.40;;;13.20;47.20;;;;;;5013139;28;20428;-83
2022/04/30 01:43:34;;;;;;;28.80;26.80;;;13.20;48.10;;;;;;5013124;28;20432;-83
2022/04/30 01:46:03;;;;;;;27.27;25.10;;;13.20;48.20;;;;;;4997378;28;20495;-84
2022/04/30 01:48:29;;;;;;;34.13;31.77;;;13.30;48.30;;;;;;4997272;28;20467;-83
2022/04/30 01:50:56;;;;;;;28.07;26.27;;;13.30;48.20;;;;;;4996782;28;20758;-84
2022/04/30 01:53:21;;;;;;;33.13;30.80;;;13.20;49.00;;;;;;4996627;28;20421;-84
2022/04/30 01:55:47;;;;;;;30.33;27.73;;;13.10;49.30;;;;;;4996515;28;20416;-85
2022/04/30 01:58:13;;;;;;;29.77;27.23;;;13.00;49.90;;;;;;5012885;28;20181;-83
2022/04/30 02:00:39;;;;;;;27.30;25.40;;;13.10;50.00;;;;;;4995931;28;20660;-85
2022/04/30 02:03:07;;;;;;;27.50;25.40;;;13.10;50.00;;;;;;4996556;28;20766;-85
2022/04/30 02:05:35;;;;;;;29.60;26.90;;;13.10;50.10;;;;;;4997196;28;20181;-85
2022/04/30 02:08:14;;;;;;;30.27;27.70;;;13.10;49.90;;;;;;4996318;28;20484;-83
2022/04/30 02:10:42;;;;;;;29.60;27.30;;;13.00;50.40;;;;;;4996510;28;20455;-85
2022/04/30 02:13:09;;;;;;;30.00;27.80;;;13.00;50.70;;;;;;4996782;28;20511;-84
2022/04/30 02:15:39;;;;;;;28.37;26.37;;;13.00;50.60;;;;;;4996292;28;20499;-85
2022/04/30 02:18:06;;;;;;;29.80;27.33;;;12.90;51.00;;;;;;4996209;28;20455;-87
2022/04/30 02:20:37;;;;;;;29.00;26.63;;;12.90;51.30;;;;;;4996566;28;20420;-84
2022/04/30 02:23:09;;;;;;;29.27;26.80;;;12.90;51.30;;;;;;4996086;28;20512;-85
2022/04/30 02:25:36;;;;;;;33.73;31.23;;;13.10;51.10;;;;;;4995895;28;20425;-85
2022/04/30 02:28:04;;;;;;;33.17;30.67;;;12.90;51.20;;;;;;4996094;28;20460;-86
2022/04/30 02:30:33;;;;;;;28.23;25.83;;;12.90;51.60;;;;;;4996050;28;20409;-85
2022/04/30 02:33:08;;;;;;;27.57;25.20;;;12.90;51.60;;;;;;4995841;28;20845;-85
2022/04/30 02:35:37;;;;;;;28.77;26.50;;;12.90;51.10;;;;;;4995755;28;20419;-84
2022/04/30 02:38:10;;;;;;;28.03;25.40;;;12.90;51.10;;;;;;4996002;28;20745;-84
2022/04/30 02:40:39;;;;;;;27.80;25.77;;;12.90;51.30;;;;;;4996379;28;20443;-84
2022/04/30 02:43:15;;;;;;;31.43;29.23;;;12.80;50.70;;;;;;5012102;28;20409;-84
2022/04/30 02:45:44;;;;;;;27.27;25.43;;;12.90;50.90;;;;;;4995935;28;20469;-86
2022/04/30 02:48:12;;;;;;;33.50;30.93;;;12.90;51.00;;;;;;4995741;28;20456;-85
2022/04/30 02:50:38;;;;;;;25.67;23.77;;;12.70;51.40;;;;;;4996099;28;20412;-85
2022/04/30 02:53:04;;;;;;;28.00;25.47;;;12.70;51.50;;;;;;4995434;28;20903;-85
2022/04/30 02:55:30;;;;;;;26.73;24.90;;;12.70;51.70;;;;;;4995179;28;20319;-85
2022/04/30 03:00:43;;;;;;;33.47;31.00;;;12.70;52.30;;;;;;5013727;28;20435;-85
2022/04/30 03:03:10;;;;;;;29.67;27.17;;;12.80;51.40;;;;;;4995889;28;20413;-85
2022/04/30 03:05:39;;;;;;;27.07;24.77;;;12.70;51.90;;;;;;4995178;28;20490;-85
2022/04/30 03:08:12;;;;;;;26.93;24.93;;;12.60;52.40;;;;;;4995605;28;20515;-85
2022/04/30 03:10:39;;;;;;;27.40;24.93;;;12.60;53.00;;;;;;4995104;28;20460;-86
2022/04/30 03:13:05;;;;;;;26.80;24.20;;;12.60;52.90;;;;;;4995685;28;20896;-85
2022/04/30 03:15:38;;;;;;;28.13;25.40;;;12.60;53.70;;;;;;4995298;28;20416;-86
2022/04/30 03:23:31;;;;;;;26.37;24.27;;;12.50;54.50;;;;;;5014060;28;20405;-85
2022/04/30 03:25:56;;;;;;;29.03;26.83;;;12.50;54.60;;;;;;4995635;28;20462;-85
2022/04/30 03:28:23;;;;;;;28.47;26.17;;;12.50;54.50;;;;;;4995989;28;20463;-85
2022/04/30 03:30:49;;;;;;;27.83;25.47;;;12.50;54.80;;;;;;4996009;28;20173;-86
2022/04/30 03:33:14;;;;;;;28.07;25.43;;;12.50;54.90;;;;;;4995860;28;20415;-85
2022/04/30 03:35:40;;;;;;;29.77;27.03;;;12.60;54.50;;;;;;4995690;28;20180;-86
2022/04/30 03:38:07;;;;;;;29.40;26.70;;;12.50;55.70;;;;;;4995890;28;20177;-85
2022/04/30 03:40:34;;;;;;;28.90;26.40;;;12.40;56.00;;;;;;4996012;28;20191;-85
2022/04/30 03:43:01;;;;;;;30.33;27.47;;;12.50;55.90;;;;;;4995822;28;20983;-86
2022/04/30 03:45:27;;;;;;;27.23;24.50;;;12.50;56.00;;;;;;5011309;28;20439;-86
2022/04/30 03:47:53;;;;;;;30.00;27.13;;;12.50;56.60;;;;;;5012559;28;20464;-86
2022/04/30 03:50:31;;;;;;;26.47;24.13;;;12.50;56.20;;;;;;5012206;28;20416;-85
2022/04/30 03:52:57;;;;;;;29.87;26.73;;;12.50;56.20;;;;;;5010963;28;20239;-88
2022/04/30 03:55:35;;;;;;;29.60;26.80;;;12.40;57.00;;;;;;5021533;28;20529;-84
2022/04/30 03:58:05;;;;;;;28.53;26.00;;;12.20;57.00;;;;;;5022986;28;20172;-85
2022/04/30 04:00:31;;;;;;;27.97;25.10;;;12.20;57.50;;;;;;5018461;28;20775;-84
2022/04/30 04:02:59;;;;;;;29.23;26.87;;;12.30;57.60;;;;;;5031689;28;20407;-85
2022/04/30 04:05:26;;;;;;;28.17;25.70;;;12.30;57.00;;;;;;5031756;28;20794;-86
2022/04/30 04:07:52;;;;;;;29.87;27.10;;;12.20;57.70;;;;;;5031128;28;20493;-84
2022/04/30 04:10:18;;;;;;;30.23;27.40;;;12.20;58.10;;;;;;5031407;28;20414;-85
2022/04/30 04:12:43;;;;;;;29.80;27.23;;;12.20;57.90;;;;;;5030843;28;20920;-84
2022/04/30 04:17:54;;;;;;;30.63;27.63;;;12.10;58.10;;;;;;5033292;28;20218;-85
2022/04/30 04:20:26;;;;;;;28.00;25.30;;;12.10;58.60;;;;;;5031958;28;21215;-86
2022/04/30 04:22:53;;;;;;;28.93;26.23;;;12.10;58.30;;;;;;5032435;28;20407;-87
2022/04/30 04:28:03;;;;;;;33.50;27.40;;;12.10;58.60;;;;;;5037172;28;20486;-87
2022/04/30 04:30:31;;;;;;;29.43;26.50;;;12.10;58.70;;;;;;5035625;28;20415;-83
2022/04/30 04:32:58;;;;;;;30.50;27.30;;;12.10;59.40;;;;;;5035374;28;20549;-84
2022/04/30 04:35:24;;;;;;;30.80;27.70;;;12.10;59.20;;;;;;5034885;28;20468;-83
2022/04/30 04:37:50;;;;;;;30.73;26.03;;;12.10;59.50;;;;;;5035072;28;20885;-83
2022/04/30 04:40:17;;;;;;;28.20;25.30;;;12.00;60.60;;;;;;5035439;28;20430;-83
2022/04/30 04:42:44;;;;;;;29.40;26.40;;;12.00;61.10;;;;;;5035025;28;20478;-83
2022/04/30 04:45:11;;;;;;;26.93;24.20;;;11.90;62.70;;;;;;5034479;28;20446;-83
2022/04/30 04:47:40;;;;;;;28.30;25.53;;;11.80;62.90;;;;;;5034876;28;20548;-83
2022/04/30 04:50:08;;;;;;;26.43;23.73;;;12.00;62.90;;;;;;5034819;28;20417;-84
2022/04/30 04:52:34;;;;;;;27.43;25.10;;;11.90;63.40;;;;;;5034821;28;20418;-84
2022/04/30 04:55:00;;;;;;;29.60;25.93;;;11.90;63.10;;;;;;5034459;28;20502;-84
2022/04/30 04:57:26;;;;;;;35.30;32.30;;;11.80;63.90;;;;;;5034595;28;20454;-84
2022/04/30 04:59:53;;;;;;;25.57;23.10;;;11.90;64.10;;;;;;5034581;28;20188;-84
2022/04/30 05:02:20;;;;;;;24.43;22.13;;;11.80;63.80;;;;;;5034697;28;20172;-84
2022/04/30 05:04:46;;;;;;;26.70;23.83;;;11.80;63.90;;;;;;5034912;28;20411;-85
2022/04/30 05:07:12;;;;;;;26.47;23.67;;;11.80;64.90;;;;;;5034115;28;21005;-84
2022/04/30 05:09:38;;;;;;;28.07;25.60;;;11.80;64.60;;;;;;5034634;28;20411;-84
2022/04/30 05:12:04;;;;;;;26.70;23.90;;;11.80;65.60;;;;;;5034575;28;20939;-84
2022/04/30 05:14:33;;;;;;;27.70;25.00;;;11.80;65.30;;;;;;5034584;28;20177;-84
2022/04/30 05:17:00;;;;;;;27.43;24.53;;;11.90;65.10;;;;;;5035374;28;20845;-84
2022/04/30 05:19:25;;;;;;;25.87;23.37;;;11.80;65.20;;;;;;5034437;28;20414;-84
2022/04/30 05:21:51;;;;;;;24.87;22.37;;;11.90;65.60;;;;;;5034638;28;20930;-84
2022/04/30 05:24:17;;;;;;;25.97;23.50;;;11.70;69.40;;;;;;5034577;28;20188;-84
2022/04/30 05:26:43;;;;;;;23.93;21.57;;;11.60;70.50;;;;;;5034263;28;20641;-84
2022/04/30 05:29:08;;;;;;;27.63;24.57;;;11.70;72.40;;;;;;5034367;28;20264;-81
2022/04/30 05:31:34;;;;;;;25.53;22.90;;;11.70;70.10;;;;;;5034383;28;20168;-83
2022/04/30 05:34:00;;;;;;;26.37;23.20;;;11.90;68.60;;;;;;5033822;28;20223;-83
2022/04/30 05:36:25;;;;;;;25.53;22.87;;;11.90;66.80;;;;;;5034371;28;20179;-84
2022/04/30 05:38:51;;;;;;;26.80;23.60;;;11.80;66.90;;;;;;5019937;28;20196;-84
2022/04/30 05:41:17;;;;;;;25.13;22.70;;;11.80;67.80;;;;;;5014655;28;20204;-85
2022/04/30 05:43:43;;;;;;;34.13;31.03;;;11.90;68.80;;;;;;5013507;28;20648;-85
2022/04/30 05:46:09;;;;;;;25.90;23.20;;;11.90;67.50;;;;;;5014868;28;20408;-84
2022/04/30 05:48:35;;;;;;;22.37;20.23;;;11.90;68.50;;;;;;5014131;28;20568;-84
2022/04/30 05:51:02;;;;;;;26.20;21.37;;;11.80;70.00;;;;;;5014170;28;20419;-84
2022/04/30 05:53:28;;;;;;;22.30;19.07;;;11.70;71.50;;;;;;5014134;28;20169;-85
2022/04/30 05:55:54;;;;;;;28.20;22.30;;;11.70;72.40;;;;;;5014138;28;20470;-84
2022/04/30 05:58:20;;;;;;;21.90;19.80;;;11.70;72.50;;;;;;5013736;28;20264;-83
2022/04/30 06:00:46;;;;;;;22.13;19.90;;;11.70;72.80;;;;;;5014020;28;20239;-85
2022/04/30 06:03:11;;;;;;;29.60;22.63;;;11.90;70.50;;;;;;5013916;28;21115;-84
2022/04/30 06:05:37;;;;;;;24.57;20.70;;;11.80;71.40;;;;;;5013965;28;20489;-82
2022/04/30 06:08:06;;;;;;;25.27;20.83;;;11.80;71.30;;;;;;5013803;28;20205;-83
2022/04/30 06:10:31;;;;;;;22.93;20.63;;;11.70;72.50;;;;;;5013955;28;20229;-85
2022/04/30 06:12:57;;;;;;;21.90;19.80;;;11.70;72.80;;;;;;5013797;28;20416;-85
2022/04/30 06:15:23;;;;;;;26.13;20.70;;;11.70;74.50;;;;;;5013627;28;20184;-83
2022/04/30 06:17:49;;;;;;;32.10;29.20;;;11.70;72.30;;;;;;5013863;28;20554;-85
2022/04/30 06:20:15;;;;;;;23.30;20.60;;;11.60;73.70;;;;;;5013609;28;20908;-86
2022/04/30 06:22:41;;;;;;;22.70;19.97;;;11.40;75.20;;;;;;5013589;28;20184;-84
2022/04/30 06:25:07;;;;;;;30.73;20.93;;;11.50;76.40;;;;;;5013332;28;20415;-85
2022/04/30 06:27:33;;;;;;;27.27;24.63;;;11.50;77.60;;;;;;5013577;28;20204;-86
2022/04/30 06:29:59;;;;;;;24.27;21.90;;;11.50;77.10;;;;;;5013008;28;20420;-85
2022/04/30 06:32:26;;;;;;;24.13;21.50;;;11.50;77.40;;;;;;5012743;28;20513;-86
2022/04/30 06:34:52;;;;;;;23.70;21.43;;;11.60;76.70;;;;;;5012399;28;20416;-86
2022/04/30 06:37:17;;;;;;;24.13;21.50;;;11.60;75.70;;;;;;5014439;28;20470;-84
2022/04/30 06:39:46;;;;;;;31.40;19.30;;;11.60;76.10;;;;;;5013477;28;20181;-84
2022/04/30 06:42:12;;;;;;;21.90;19.57;;;11.80;75.30;;;;;;5013584;28;20224;-84
2022/04/30 06:44:37;;;;;;;22.57;20.37;;;11.80;75.60;;;;;;5012996;28;20444;-83
2022/04/30 06:47:03;;;;;;;22.37;19.87;;;11.80;75.70;;;;;;5012714;28;20248;-83
2022/04/30 06:49:29;;;;;;;22.40;19.97;;;11.80;76.20;;;;;;5013074;28;20260;-85
2022/04/30 06:51:55;;;;;;;20.70;18.60;;;11.80;75.50;;;;;;5013058;28;20848;-88
2022/04/30 06:57:21;;;;;;;22.73;19.93;;;12.00;72.50;;;;;;5014232;28;20396;-83
2022/04/30 06:59:51;;;;;;;23.33;20.37;;;12.00;72.90;;;;;;5021010;23;20562;-84
2022/04/30 07:02:22;;;;;;;22.90;19.33;;;11.80;72.90;;;;;;4996682;28;20471;-85
2022/04/30 07:04:51;;;;;;;24.27;18.77;;;11.80;74.60;;;;;;4996277;28;20428;-84
2022/04/30 07:07:18;;;;;;;30.27;27.57;;;11.90;74.50;;;;;;4996709;28;20571;-84
2022/04/30 07:09:44;;;;;;;31.00;26.05;;;11.90;73.00;;;;;;4995942;28;20498;-85
2022/04/30 07:12:13;;;;;;;33.13;30.13;;;11.90;73.70;;;;;;4996877;28;20176;-84
2022/04/30 07:14:40;;;;;;;31.47;28.63;;;12.00;74.30;;;;;;4996880;28;20420;-85
2022/04/30 07:17:11;;;;;;;21.20;19.20;;;12.00;73.10;;;;;;4996752;28;21131;-86
2022/04/30 07:19:37;;;;;;;20.57;18.50;;;11.90;73.80;;;;;;4996377;28;20420;-85
2022/04/30 07:22:03;;;;;;;21.07;18.77;;;11.90;74.30;;;;;;4993280;28;20425;-85
2022/04/30 07:24:56;;;;;;;23.97;21.27;;;12.00;72.40;;;;;;4977095;28;20216;-87
2022/04/30 07:27:21;;;;;;;20.47;18.30;;;12.00;71.90;;;;;;4977007;28;20854;-83
2022/04/30 07:29:48;;;;;;;21.57;19.57;;;12.00;71.00;;;;;;4976813;28;20512;-83
2022/04/30 07:32:14;;;;;;;21.73;19.60;;;12.00;70.90;;;;;;4977028;28;20205;-83
2022/04/30 07:34:40;;;;;;;21.53;18.83;;;11.80;72.40;;;;;;4976738;28;20463;-83
2022/04/30 07:37:10;;;;;;;21.47;19.40;;;11.90;70.80;;;;;;4976820;28;20634;-83
2022/04/30 07:39:37;;;;;;;20.80;18.70;;;11.90;71.10;;;;;;4976891;28;20413;-84
2022/04/30 07:42:03;;;;;;;24.20;19.10;;;12.00;71.10;;;;;;4976752;28;20532;-83
2022/04/30 07:44:30;;;;;;;23.43;20.30;;;12.00;70.30;;;;;;4993861;28;20905;-84
2022/04/30 07:46:56;;;;;;;21.07;17.93;;;12.10;70.60;;;;;;4976735;28;20475;-83
2022/04/30 07:49:22;;;;;;;21.40;19.20;;;12.00;70.30;;;;;;4976742;28;20504;-83
2022/04/30 07:51:57;;;;;;;21.23;19.00;;;11.90;71.30;;;;;;4989665;28;20420;-84
2022/04/30 07:54:26;;;;;;;25.43;19.07;;;11.90;73.30;;;;;;4996250;28;20765;-84
2022/04/30 07:56:53;;;;;;;19.87;17.77;;;12.00;71.00;;;;;;4995506;28;20444;-84
2022/04/30 07:59:20;;;;;;;21.63;19.53;;;12.00;72.40;;;;;;4995506;28;20419;-84
2022/04/30 08:01:47;;;;;;;19.80;18.00;;;12.00;72.60;;;;;;4995531;28;20454;-83
2022/04/30 08:04:13;;;;;;;18.50;16.60;;;12.00;71.90;;;;;;4995406;28;20925;-85
2022/04/30 08:06:38;;;;;;;22.03;19.53;;;12.00;71.50;;;;;;4995812;28;20427;-84
2022/04/30 08:09:07;;;;;;;20.70;18.90;;;11.70;74.10;;;;;;4985696;28;20451;-84
2022/04/30 08:11:33;;;;;;;26.57;24.00;;;11.70;75.60;;;;;;4986344;28;20265;-84
2022/04/30 08:13:58;;;;;;;22.00;18.30;;;11.70;75.50;;;;;;4984534;28;20499;-85
2022/04/30 08:16:24;;;;;;;18.13;16.37;;;11.90;74.90;;;;;;4998026;28;20472;-84
2022/04/30 08:18:50;;;;;;;17.63;16.03;;;11.90;73.00;;;;;;4975430;28;20181;-85
2022/04/30 08:21:16;;;;;;;19.20;17.23;;;11.90;73.60;;;;;;4975254;28;20416;-84
2022/04/30 08:23:41;;;;;;;23.40;21.30;;;11.90;72.70;;;;;;4986338;28;20189;-83
2022/04/30 08:26:07;;;;;;;23.13;21.17;;;11.80;73.30;;;;;;4991557;28;20182;-83
2022/04/30 08:28:33;;;;;;;17.67;15.97;;;11.80;75.10;;;;;;4991843;28;20692;-83
2022/04/30 08:30:59;;;;;;;17.70;15.90;;;11.70;76.30;;;;;;4994608;28;20420;-84
2022/04/30 08:33:25;;;;;;;17.87;16.23;;;11.70;74.40;;;;;;4994741;28;20697;-84
2022/04/30 08:35:50;;;;;;;16.20;14.57;;;11.70;73.70;;;;;;5009260;28;20185;-84
2022/04/30 08:38:16;;;;;;;19.50;17.57;;;11.60;76.40;;;;;;4983493;28;20423;-83
2022/04/30 08:40:43;;;;;;;24.73;22.67;;;11.60;75.10;;;;;;4983293;28;20182;-85
2022/04/30 08:43:14;;;;;;;18.30;16.40;;;11.60;75.30;;;;;;4983129;28;20221;-85
2022/04/30 08:45:42;;;;;;;17.30;15.67;;;11.70;73.70;;;;;;4982768;28;20431;-84
2022/04/30 08:48:10;;;;;;;20.70;16.73;;;11.60;75.80;;;;;;4985608;28;20796;-84
2022/04/30 08:50:38;;;;;;;17.90;16.30;;;11.60;76.30;;;;;;4982488;28;20425;-84
2022/04/30 08:53:04;;;;;;;17.90;16.00;;;11.60;75.90;;;;;;4977535;28;21031;-84
2022/04/30 08:55:30;;;;;;;18.60;16.73;;;11.60;76.30;;;;;;4975188;28;20508;-84
2022/04/30 08:57:56;;;;;;;23.93;21.83;;;11.60;75.20;;;;;;4974708;28;20648;-82
2022/04/30 09:00:22;;;;;;;22.37;20.60;;;11.60;76.30;;;;;;4974773;28;20658;-82
2022/04/30 09:02:53;;;;;;;24.13;22.13;;;11.60;75.90;;;;;;4974904;28;20567;-83
2022/04/30 09:05:19;;;;;;;23.37;21.53;;;11.50;77.60;;;;;;4974209;28;20189;-83
2022/04/30 09:07:59;;;;;;;21.27;19.17;;;11.50;78.40;;;;;;4973984;28;20468;-83
2022/04/30 09:10:30;;;;;;;25.70;23.57;;;11.40;79.60;;;;;;4977361;28;20421;-83
2022/04/30 09:13:16;;;;;;;15.77;14.20;;;11.60;78.70;;;;;;4978352;28;20421;-83
2022/04/30 09:15:44;;;;;;;26.23;23.90;;;11.60;76.00;;;;;;4977798;28;20503;-83
2022/04/30 09:18:11;;;;;;;20.10;18.40;;;11.60;75.80;;;;;;4978291;28;20425;-83
2022/04/30 09:20:47;;;;;;;18.93;17.03;;;11.40;77.10;;;;;;4978084;28;20424;-83
2022/04/30 09:23:32;;;;;;;20.67;18.93;;;11.30;80.80;;;;;;4977832;28;20420;-85
2022/04/30 09:26:02;;;;;;;16.40;14.77;;;11.30;80.60;;;;;;4986782;28;20428;-83
2022/04/30 09:28:30;;;;;;;19.83;18.10;;;11.40;78.00;;;;;;4989388;28;20777;-83
2022/04/30 09:31:16;;;;;;;20.00;18.40;;;11.30;77.80;;;;;;4987427;28;20413;-83
2022/04/30 09:33:50;;;;;;;21.67;19.73;;;11.40;77.50;;;;;;5003147;28;20897;-83
2022/04/30 09:39:10;;;;;;;20.23;18.37;;;11.50;78.20;;;;;;5014453;28;20678;-84
2022/04/30 09:41:36;;;;;;;21.50;19.80;;;11.50;80.40;;;;;;4982918;28;20850;-81
2022/04/30 09:44:06;;;;;;;15.87;14.67;;;11.60;76.80;;;;;;4976784;28;20418;-83
2022/04/30 09:46:35;;;;;;;19.23;17.80;;;11.60;75.30;;;;;;4977541;28;20269;-85
2022/04/30 09:54:35;;;;;;;17.33;16.13;;;11.40;76.90;;;;;;5009210;28;20482;-83
2022/04/30 09:57:04;;;;;;;16.93;15.70;;;11.40;77.60;;;;;;4992517;28;20882;-83
2022/04/30 09:59:33;;;;;;;20.17;18.73;;;11.40;77.30;;;;;;4982607;28;20455;-82
2022/04/30 10:02:03;;;;;;;15.53;14.33;;;11.40;75.50;;;;;;4977130;28;20634;-83
2022/04/30 10:04:30;;;;;;;16.53;14.00;;;11.50;74.40;;;;;;4976809;28;20428;-83
2022/04/30 10:06:59;;;;;;;13.93;12.83;;;11.50;73.70;;;;;;4977106;28;20417;-83
2022/04/30 10:09:32;;;;;;;12.87;11.97;;;11.40;75.90;;;;;;4976872;28;20837;-82
2022/04/30 10:12:23;;;;;;;17.93;16.53;;;11.60;74.80;;;;;;4976960;28;20435;-82
2022/04/30 10:14:57;;;;;;;18.47;17.17;;;11.60;73.40;;;;;;4976656;28;20417;-81
2022/04/30 10:17:25;;;;;;;17.20;15.73;;;11.70;74.90;;;;;;4977074;28;20442;-81
2022/04/30 10:19:58;;;;;;;17.60;16.20;;;11.60;75.70;;;;;;4976494;28;20429;-81
2022/04/30 10:22:23;;;;;;;18.10;16.70;;;11.70;78.10;;;;;;4975877;28;20416;-82
2022/04/30 10:24:50;;;;;;;14.90;13.40;;;11.70;79.50;;;;;;4976123;28;20425;-81
2022/04/30 10:27:17;;;;;;;17.10;15.80;;;11.70;81.20;;;;;;4976719;28;20643;-81
2022/04/30 10:29:57;;;;;;;18.00;16.50;;;11.90;77.90;;;;;;4975916;28;20513;-82
2022/04/30 10:32:26;;;;;;;18.50;17.03;;;12.00;76.40;;;;;;4976391;28;20425;-81
2022/04/30 10:34:55;;;;;;;17.90;16.60;;;12.00;76.80;;;;;;4976416;28;20997;-81
2022/04/30 10:37:47;;;;;;;17.00;15.70;;;12.10;78.10;;;;;;4976095;28;20445;-82
2022/04/30 10:40:12;;;;;;;15.63;14.50;;;12.20;79.40;;;;;;4972509;28;20850;-81
2022/04/30 10:42:43;;;;;;;12.80;11.83;;;12.20;81.30;;;;;;4976202;28;20421;-82
2022/04/30 10:45:16;;;;;;;13.07;12.07;;;12.40;76.70;;;;;;4992612;28;20740;-82
2022/04/30 10:47:53;;;;;;;13.50;12.50;;;12.20;73.30;;;;;;4975976;28;20457;-82
2022/04/30 10:50:19;;;;;;;12.30;11.40;;;12.20;73.30;;;;;;4975605;28;20448;-81
2022/04/30 10:52:49;;;;;;;12.87;11.87;;;12.30;73.80;;;;;;4975730;28;20471;-82
2022/04/30 10:55:16;;;;;;;14.03;12.93;;;12.30;72.30;;;;;;4975620;28;20775;-81
2022/04/30 10:57:42;;;;;;;14.00;13.00;;;12.20;72.60;;;;;;4993147;28;20852;-81
2022/04/30 11:00:08;;;;;;;14.33;13.30;;;12.10;74.70;;;;;;4975431;28;20448;-82
2022/04/30 11:02:34;;;;;;;13.70;12.70;;;12.10;74.10;;;;;;4975962;28;20995;-81
2022/04/30 11:05:01;;;;;;;13.00;12.20;;;12.10;73.50;;;;;;4976225;28;20421;-81
2022/04/30 11:07:28;;;;;;;13.17;12.37;;;12.00;73.10;;;;;;4975427;28;20276;-84
2022/04/30 11:09:55;;;;;;;13.80;12.60;;;12.00;72.80;;;;;;4976003;28;20417;-82
2022/04/30 11:12:20;;;;;;;13.20;12.53;;;11.90;71.60;;;;;;4975869;28;20422;-82
2022/04/30 11:14:47;;;;;;;11.57;10.87;;;11.80;72.80;;;;;;4985921;28;20424;-82
2022/04/30 11:17:12;;;;;;;13.37;12.77;;;11.80;72.90;;;;;;4986841;28;20197;-82
2022/04/30 11:19:42;;;;;;;13.43;12.63;;;11.80;72.90;;;;;;4984330;28;20912;-82
2022/04/30 11:22:13;;;;;;;13.07;12.27;;;11.90;74.10;;;;;;4986834;28;20552;-83
2022/04/30 11:24:41;;;;;;;13.53;12.90;;;12.00;71.20;;;;;;4984790;28;20422;-82
2022/04/30 11:27:08;;;;;;;12.93;12.23;;;11.90;70.00;;;;;;4987888;28;20421;-83
2022/04/30 11:29:49;;;;;;;13.13;12.43;;;11.90;72.80;;;;;;4985469;28;20501;-84
2022/04/30 11:32:22;;;;;;;12.00;11.30;;;11.90;73.00;;;;;;4991956;28;20401;-82
2022/04/30 11:34:49;;;;;;;12.83;12.07;;;12.10;72.90;;;;;;4976426;28;20420;-82
2022/04/30 11:37:15;;;;;;;12.70;12.00;;;12.20;71.30;;;;;;4976454;28;20421;-82
2022/04/30 11:39:41;;;;;;;12.40;11.80;;;12.30;66.70;;;;;;4976422;28;20432;-82
2022/04/30 11:42:07;;;;;;;15.90;15.10;;;12.40;67.60;;;;;;4976253;28;20445;-82
2022/04/30 11:44:32;;;;;;;15.87;15.03;;;12.30;67.50;;;;;;4976283;28;20556;-82
2022/04/30 11:46:58;;;;;;;12.90;12.20;;;12.20;68.40;;;;;;4993634;28;20413;-82
2022/04/30 11:49:26;;;;;;;12.87;12.10;;;12.20;69.40;;;;;;4976143;28;20178;-79
2022/04/30 11:51:54;;;;;;;14.20;13.30;;;12.30;70.80;;;;;;4975707;28;20202;-79
2022/04/30 11:54:23;;;;;;;13.97;13.03;;;12.50;66.90;;;;;;4975115;28;20478;-79
2022/04/30 11:56:51;;;;;;;13.10;12.40;;;12.40;67.10;;;;;;4975264;28;20421;-80
2022/04/30 11:59:30;;;;;;;16.33;15.30;;;12.40;68.10;;;;;;4975256;28;20415;-79
2022/04/30 12:02:03;;;;;;;14.10;13.40;;;12.50;68.80;;;;;;4975751;28;20791;-80
2022/04/30 12:04:35;;;;;;;15.73;14.82;;;12.70;64.50;;;;;;4975371;28;20474;-79
2022/04/30 12:07:05;;;;;;;13.70;12.90;;;12.60;62.00;;;;;;4975715;28;20258;-79
2022/04/30 12:09:33;;;;;;;14.23;13.53;;;12.70;64.60;;;;;;4975647;28;20481;-78
2022/04/30 12:12:00;;;;;;;14.93;14.13;;;12.60;64.20;;;;;;4975859;28;20394;-79
2022/04/30 12:14:26;;;;;;;16.00;15.20;;;12.70;64.80;;;;;;4975504;28;20417;-80
2022/04/30 12:16:53;;;;;;;15.63;14.83;;;12.70;65.10;;;;;;4975049;28;20413;-82
2022/04/30 12:25:18;;;;;;;14.27;13.47;;;12.70;62.00;;;;;;4993280;28;20417;-79
2022/04/30 12:27:54;;;;;;;15.63;14.73;;;12.70;64.10;;;;;;4975485;28;20491;-82
2022/04/30 12:30:21;;;;;;;14.57;13.87;;;12.70;64.50;;;;;;4975728;28;20475;-82
2022/04/30 12:32:49;;;;;;;16.33;15.43;;;12.70;63.00;;;;;;4975601;28;20516;-82
2022/04/30 12:35:33;;;;;;;17.47;16.50;;;12.70;62.40;;;;;;4974946;28;20420;-83
2022/04/30 12:38:13;;;;;;;16.80;15.90;;;12.80;59.70;;;;;;4975526;28;20442;-83
2022/04/30 12:40:44;;;;;;;17.40;16.50;;;12.60;60.10;;;;;;4975471;28;20497;-82
2022/04/30 12:43:11;;;;;;;18.23;17.23;;;12.70;58.70;;;;;;4975135;28;20916;-81
2022/04/30 12:45:40;;;;;;;18.90;18.00;;;12.80;56.30;;;;;;4978850;28;20441;-83
2022/04/30 12:48:08;;;;;;;18.10;17.20;;;12.70;57.80;;;;;;4978877;28;20452;-86
2022/04/30 12:50:35;;;;;;;17.13;16.33;;;12.60;55.30;;;;;;4979429;28;20509;-84
2022/04/30 12:53:01;;;;;;;17.97;17.17;;;12.50;55.10;;;;;;4979536;28;21161;-82
2022/04/30 12:55:30;;;;;;;17.80;17.00;;;12.50;55.30;;;;;;4979214;28;20409;-82
2022/04/30 12:57:56;;;;;;;18.30;17.40;;;12.20;57.50;;;;;;4990484;28;20428;-81
2022/04/30 13:00:21;;;;;;;17.73;16.83;;;12.30;57.50;;;;;;4991826;28;20433;-82
2022/04/30 13:02:47;;;;;;;16.80;16.07;;;12.30;59.20;;;;;;4990536;28;20468;-82
2022/04/30 13:05:14;;;;;;;19.00;17.90;;;12.30;59.40;;;;;;4993237;28;20189;-81
2022/04/30 13:07:48;;;;;;;16.67;15.97;;;12.60;56.60;;;;;;4991316;28;20202;-82
2022/04/30 13:15:42;;;;;;;20.00;18.80;;;12.50;57.40;;;;;;5015906;28;20411;-82